DLH7HV EDDL-EDDM
Flight info
| Callsign | DLH7HV |
|---|---|
| Flight time | 0h 54m |
| Altitude | 35000 |
| Route | DODEN7Z DODEN Y853 BOMBI T104 HAREM/N0425F270 T104 ROKIL ROKIL1B |
| Aircraft | A320/M-SDE2E3FGIJ1LORWXYZ/HB1 |
Departure
| Time | 2026-05-05 18:01 |
|---|---|
| Airport | Düsseldorf Airport (EDDL) |
Arrival
| Time | 2026-05-05 18:55 |
|---|---|
| Airport | Munich Airport (EDDM) |
| Time | Latitude | Longitude | Altitude | Speed | Heading |
|---|---|---|---|---|---|
| 2026-05-05 17:28 | 51.28150 | 6.76543 | 128 ft | 0 kts | 96° |
| 2026-05-05 17:48 | 51.28152 | 6.76522 | 126 ft | 4 kts | 96° |
| 2026-05-05 17:48 | 51.28155 | 6.76479 | 127 ft | 4 kts | 96° |
| 2026-05-05 17:48 | 51.28149 | 6.76451 | 126 ft | 4 kts | 26° |
| 2026-05-05 17:48 | 51.28170 | 6.76438 | 128 ft | 4 kts | 335° |
| 2026-05-05 17:49 | 51.28195 | 6.76428 | 130 ft | 4 kts | 360° |
| 2026-05-05 17:49 | 51.28208 | 6.76432 | 128 ft | 4 kts | 12° |
| 2026-05-05 17:49 | 51.28233 | 6.76448 | 127 ft | 4 kts | 26° |
| 2026-05-05 17:49 | 51.28256 | 6.76472 | 128 ft | 4 kts | 39° |
| 2026-05-05 17:50 | 51.28278 | 6.76515 | 126 ft | 4 kts | 233° |
| 2026-05-05 17:50 | 51.28294 | 6.76550 | 127 ft | 4 kts | 234° |
| 2026-05-05 17:50 | 51.28309 | 6.76585 | 123 ft | 4 kts | 234° |
| 2026-05-05 17:50 | 51.28325 | 6.76620 | 124 ft | 4 kts | 230° |
| 2026-05-05 17:51 | 51.28330 | 6.76628 | 124 ft | 0 kts | 229° |
| 2026-05-05 17:54 | 51.28326 | 6.76621 | 126 ft | 2 kts | 229° |
| 2026-05-05 17:54 | 51.28300 | 6.76571 | 127 ft | 8 kts | 232° |
| 2026-05-05 17:54 | 51.28300 | 6.76501 | 126 ft | 7 kts | 305° |
| 2026-05-05 17:54 | 51.28314 | 6.76407 | 125 ft | 11 kts | 236° |
| 2026-05-05 17:55 | 51.28272 | 6.76321 | 123 ft | 10 kts | 232° |
| 2026-05-05 17:55 | 51.28228 | 6.76228 | 128 ft | 10 kts | 233° |
| 2026-05-05 17:55 | 51.28186 | 6.76137 | 129 ft | 9 kts | 233° |
| 2026-05-05 17:55 | 51.28148 | 6.76059 | 127 ft | 10 kts | 232° |
| 2026-05-05 17:56 | 51.28099 | 6.75957 | 128 ft | 11 kts | 232° |
| 2026-05-05 17:56 | 51.28046 | 6.75846 | 129 ft | 16 kts | 232° |
| 2026-05-05 17:56 | 51.27981 | 6.75711 | 127 ft | 15 kts | 233° |
| 2026-05-05 17:56 | 51.27923 | 6.75587 | 127 ft | 14 kts | 233° |
| 2026-05-05 17:57 | 51.27866 | 6.75468 | 122 ft | 13 kts | 232° |
| 2026-05-05 17:57 | 51.27851 | 6.75342 | 123 ft | 13 kts | 315° |
| 2026-05-05 17:57 | 51.27884 | 6.75315 | 124 ft | 0 kts | 334° |
| 2026-05-05 17:59 | 51.27887 | 6.75312 | 124 ft | 4 kts | 334° |
| 2026-05-05 17:59 | 51.27928 | 6.75280 | 121 ft | 15 kts | 334° |
| 2026-05-05 18:00 | 51.28004 | 6.75291 | 119 ft | 7 kts | 57° |
| 2026-05-05 18:00 | 51.28041 | 6.75369 | 122 ft | 10 kts | 52° |
| 2026-05-05 18:00 | 51.28188 | 6.75675 | 127 ft | 69 kts | 53° |
| 2026-05-05 18:00 | 51.28611 | 6.76562 | 129 ft | 129 kts | 52° |
| 2026-05-05 18:01 | 51.29246 | 6.77904 | 304 ft | 160 kts | 50° |
| 2026-05-05 18:01 | 51.29898 | 6.79331 | 1052 ft | 158 kts | 51° |
| 2026-05-05 18:01 | 51.30569 | 6.80779 | 1633 ft | 171 kts | 50° |
| 2026-05-05 18:01 | 51.31343 | 6.82380 | 1974 ft | 193 kts | 51° |
| 2026-05-05 18:02 | 51.32212 | 6.84190 | 2307 ft | 218 kts | 52° |
| 2026-05-05 18:02 | 51.33066 | 6.86334 | 2739 ft | 241 kts | 70° |
| 2026-05-05 18:02 | 51.33199 | 6.89055 | 3430 ft | 255 kts | 101° |
| 2026-05-05 18:02 | 51.32437 | 6.91636 | 4288 ft | 263 kts | 128° |
| 2026-05-05 18:03 | 51.31220 | 6.93849 | 5171 ft | 267 kts | 133° |
| 2026-05-05 18:03 | 51.29942 | 6.96032 | 6063 ft | 271 kts | 134° |
| 2026-05-05 18:03 | 51.28655 | 6.98263 | 6910 ft | 275 kts | 131° |
| 2026-05-05 18:03 | 51.27663 | 7.00896 | 7713 ft | 280 kts | 115° |
| 2026-05-05 18:04 | 51.26872 | 7.03758 | 8564 ft | 284 kts | 114° |
| 2026-05-05 18:04 | 51.26081 | 7.06667 | 9404 ft | 288 kts | 114° |
| 2026-05-05 18:04 | 51.25279 | 7.09627 | 10122 ft | 297 kts | 114° |
| 2026-05-05 18:04 | 51.24427 | 7.12774 | 10382 ft | 321 kts | 114° |
| 2026-05-05 18:05 | 51.23514 | 7.16141 | 10707 ft | 338 kts | 114° |
| 2026-05-05 18:05 | 51.22569 | 7.19619 | 11383 ft | 343 kts | 114° |
| 2026-05-05 18:05 | 51.21613 | 7.23128 | 12110 ft | 347 kts | 114° |
| 2026-05-05 18:05 | 51.20646 | 7.26668 | 12832 ft | 350 kts | 114° |
| 2026-05-05 18:06 | 51.19663 | 7.30245 | 13546 ft | 354 kts | 115° |
| 2026-05-05 18:06 | 51.18991 | 7.32683 | 13988 ft | 356 kts | 115° |
| 2026-05-05 18:06 | 51.17664 | 7.37488 | 14833 ft | 360 kts | 115° |
| 2026-05-05 18:06 | 51.16648 | 7.41159 | 15467 ft | 363 kts | 116° |
| 2026-05-05 18:07 | 51.15386 | 7.44649 | 16082 ft | 365 kts | 127° |
| 2026-05-05 18:07 | 51.13718 | 7.47694 | 16714 ft | 366 kts | 137° |
| 2026-05-05 18:07 | 51.11866 | 7.50503 | 17357 ft | 369 kts | 137° |
| 2026-05-05 18:07 | 51.10006 | 7.53332 | 18003 ft | 372 kts | 137° |
| 2026-05-05 18:08 | 51.08135 | 7.56187 | 18548 ft | 374 kts | 137° |
| 2026-05-05 18:08 | 51.06253 | 7.59064 | 19101 ft | 376 kts | 137° |
| 2026-05-05 18:08 | 51.04358 | 7.61955 | 19678 ft | 378 kts | 137° |
| 2026-05-05 18:08 | 51.02453 | 7.64853 | 20237 ft | 381 kts | 137° |
| 2026-05-05 18:09 | 51.00528 | 7.67772 | 20801 ft | 383 kts | 137° |
| 2026-05-05 18:09 | 50.98596 | 7.70702 | 21350 ft | 386 kts | 137° |
| 2026-05-05 18:09 | 50.96598 | 7.73558 | 21884 ft | 387 kts | 143° |
| 2026-05-05 18:09 | 50.94353 | 7.75937 | 22400 ft | 390 kts | 148° |
| 2026-05-05 18:10 | 50.92040 | 7.78215 | 22792 ft | 395 kts | 148° |
| 2026-05-05 18:10 | 50.89705 | 7.80513 | 23365 ft | 395 kts | 148° |
| 2026-05-05 18:10 | 50.87364 | 7.82816 | 23805 ft | 397 kts | 148° |
| 2026-05-05 18:10 | 50.85012 | 7.85130 | 24198 ft | 400 kts | 148° |
| 2026-05-05 18:11 | 50.82640 | 7.87454 | 24572 ft | 402 kts | 148° |
| 2026-05-05 18:11 | 50.80261 | 7.89784 | 24993 ft | 403 kts | 148° |
| 2026-05-05 18:11 | 50.77878 | 7.92120 | 25384 ft | 404 kts | 148° |
| 2026-05-05 18:11 | 50.75485 | 7.94462 | 25816 ft | 404 kts | 148° |
| 2026-05-05 18:12 | 50.73096 | 7.96794 | 26326 ft | 403 kts | 149° |
| 2026-05-05 18:12 | 50.70718 | 7.99112 | 26833 ft | 401 kts | 149° |
| 2026-05-05 18:12 | 50.68353 | 8.01417 | 27363 ft | 399 kts | 149° |
| 2026-05-05 18:12 | 50.66000 | 8.03711 | 27896 ft | 397 kts | 149° |
| 2026-05-05 18:13 | 50.63655 | 8.05988 | 28441 ft | 395 kts | 149° |
| 2026-05-05 18:13 | 50.61316 | 8.08257 | 28761 ft | 394 kts | 148° |
| 2026-05-05 18:13 | 50.59094 | 8.10775 | 28836 ft | 394 kts | 141° |
| 2026-05-05 18:14 | 50.54896 | 8.16291 | 28820 ft | 393 kts | 140° |
| 2026-05-05 18:14 | 50.50700 | 8.21814 | 29087 ft | 394 kts | 140° |
| 2026-05-05 18:14 | 50.48603 | 8.24567 | 29650 ft | 392 kts | 141° |
| 2026-05-05 18:15 | 50.46513 | 8.27303 | 30150 ft | 390 kts | 141° |
| 2026-05-05 18:15 | 50.44432 | 8.30018 | 30607 ft | 388 kts | 141° |
| 2026-05-05 18:15 | 50.42355 | 8.32722 | 30786 ft | 387 kts | 141° |
| 2026-05-05 18:16 | 50.38150 | 8.38187 | 30831 ft | 402 kts | 141° |
| 2026-05-05 18:16 | 50.33789 | 8.43843 | 30837 ft | 409 kts | 141° |
| 2026-05-05 18:17 | 50.29401 | 8.49527 | 30816 ft | 410 kts | 141° |
| 2026-05-05 18:17 | 50.25011 | 8.55207 | 30814 ft | 410 kts | 141° |
| 2026-05-05 18:18 | 50.20611 | 8.60866 | 30813 ft | 410 kts | 141° |
| 2026-05-05 18:18 | 50.16214 | 8.66519 | 30808 ft | 409 kts | 141° |
| 2026-05-05 18:19 | 50.11823 | 8.72160 | 30803 ft | 409 kts | 141° |
| 2026-05-05 18:19 | 50.07427 | 8.77775 | 30802 ft | 409 kts | 141° |
| 2026-05-05 18:20 | 50.03078 | 8.83477 | 30798 ft | 409 kts | 139° |
| 2026-05-05 18:20 | 49.98881 | 8.89462 | 30797 ft | 410 kts | 137° |
| 2026-05-05 18:21 | 49.94710 | 8.95496 | 30798 ft | 410 kts | 137° |
| 2026-05-05 18:21 | 49.90504 | 9.01476 | 30805 ft | 410 kts | 138° |
| 2026-05-05 18:22 | 49.86275 | 9.07408 | 30816 ft | 410 kts | 138° |
| 2026-05-05 18:22 | 49.82043 | 9.13336 | 30814 ft | 410 kts | 139° |
| 2026-05-05 18:23 | 49.77800 | 9.19257 | 30812 ft | 411 kts | 139° |
| 2026-05-05 18:23 | 49.73551 | 9.25190 | 30808 ft | 412 kts | 139° |
| 2026-05-05 18:24 | 49.69296 | 9.31115 | 30814 ft | 412 kts | 139° |
| 2026-05-05 18:24 | 49.65011 | 9.37040 | 30809 ft | 412 kts | 139° |
| 2026-05-05 18:25 | 49.60858 | 9.43123 | 30815 ft | 413 kts | 132° |
| 2026-05-05 18:25 | 49.57079 | 9.49796 | 30809 ft | 413 kts | 132° |
| 2026-05-05 18:26 | 49.53288 | 9.56464 | 30807 ft | 414 kts | 133° |
| 2026-05-05 18:26 | 49.49479 | 9.63111 | 30506 ft | 412 kts | 133° |
| 2026-05-05 18:26 | 49.47594 | 9.66398 | 29941 ft | 408 kts | 133° |
| 2026-05-05 18:27 | 49.45724 | 9.69661 | 29421 ft | 405 kts | 133° |
| 2026-05-05 18:27 | 49.43860 | 9.72917 | 29151 ft | 406 kts | 133° |
| 2026-05-05 18:27 | 49.41992 | 9.76165 | 28868 ft | 406 kts | 133° |
| 2026-05-05 18:27 | 49.40161 | 9.79337 | 28592 ft | 400 kts | 133° |
| 2026-05-05 18:28 | 49.36480 | 9.85720 | 28025 ft | 402 kts | 133° |
| 2026-05-05 18:28 | 49.34623 | 9.88933 | 27756 ft | 403 kts | 133° |
| 2026-05-05 18:28 | 49.32766 | 9.92142 | 27490 ft | 402 kts | 133° |
| 2026-05-05 18:29 | 49.30911 | 9.95343 | 27235 ft | 402 kts | 134° |
| 2026-05-05 18:29 | 49.29053 | 9.98536 | 26973 ft | 401 kts | 134° |
| 2026-05-05 18:29 | 49.27194 | 10.01726 | 26714 ft | 401 kts | 134° |
| 2026-05-05 18:29 | 49.25342 | 10.04902 | 26455 ft | 399 kts | 134° |
| 2026-05-05 18:30 | 49.23470 | 10.08107 | 26196 ft | 398 kts | 134° |
| 2026-05-05 18:30 | 49.21651 | 10.11222 | 25963 ft | 397 kts | 134° |
| 2026-05-05 18:30 | 49.19786 | 10.14410 | 25716 ft | 396 kts | 134° |
| 2026-05-05 18:30 | 49.17977 | 10.17499 | 25464 ft | 395 kts | 134° |
| 2026-05-05 18:31 | 49.16149 | 10.20618 | 25223 ft | 394 kts | 134° |
| 2026-05-05 18:31 | 49.14326 | 10.23733 | 24908 ft | 391 kts | 134° |
| 2026-05-05 18:31 | 49.12490 | 10.26806 | 24844 ft | 392 kts | 135° |
| 2026-05-05 18:31 | 49.10617 | 10.29845 | 24870 ft | 393 kts | 136° |
| 2026-05-05 18:32 | 49.08726 | 10.32861 | 24872 ft | 394 kts | 136° |
| 2026-05-05 18:32 | 49.06827 | 10.35870 | 24871 ft | 394 kts | 136° |
| 2026-05-05 18:32 | 49.04936 | 10.38868 | 24859 ft | 387 kts | 136° |
| 2026-05-05 18:32 | 49.03100 | 10.41795 | 24566 ft | 378 kts | 136° |
| 2026-05-05 18:33 | 49.01302 | 10.44673 | 24001 ft | 374 kts | 136° |
| 2026-05-05 18:33 | 48.99514 | 10.47538 | 23517 ft | 372 kts | 136° |
| 2026-05-05 18:33 | 48.97733 | 10.50383 | 22987 ft | 370 kts | 136° |
| 2026-05-05 18:33 | 48.95963 | 10.53209 | 22470 ft | 368 kts | 136° |
| 2026-05-05 18:34 | 48.94202 | 10.56015 | 21970 ft | 366 kts | 136° |
| 2026-05-05 18:34 | 48.92448 | 10.58804 | 21459 ft | 364 kts | 136° |
| 2026-05-05 18:34 | 48.90705 | 10.61572 | 20988 ft | 361 kts | 136° |
| 2026-05-05 18:34 | 48.88973 | 10.64324 | 20518 ft | 359 kts | 136° |
| 2026-05-05 18:35 | 48.87250 | 10.67060 | 20055 ft | 357 kts | 136° |
| 2026-05-05 18:35 | 48.85533 | 10.69782 | 19599 ft | 356 kts | 136° |
| 2026-05-05 18:35 | 48.83825 | 10.72482 | 19153 ft | 354 kts | 136° |
| 2026-05-05 18:35 | 48.82124 | 10.75169 | 18719 ft | 352 kts | 136° |
| 2026-05-05 18:36 | 48.80434 | 10.77844 | 18287 ft | 351 kts | 136° |
| 2026-05-05 18:36 | 48.78748 | 10.80501 | 17830 ft | 349 kts | 136° |
| 2026-05-05 18:36 | 48.77067 | 10.83143 | 17367 ft | 347 kts | 136° |
| 2026-05-05 18:36 | 48.75394 | 10.85763 | 16911 ft | 345 kts | 136° |
| 2026-05-05 18:37 | 48.73725 | 10.88367 | 16459 ft | 344 kts | 136° |
| 2026-05-05 18:37 | 48.72063 | 10.90959 | 16025 ft | 342 kts | 136° |
| 2026-05-05 18:37 | 48.70411 | 10.93537 | 15600 ft | 341 kts | 136° |
| 2026-05-05 18:37 | 48.68766 | 10.96105 | 15210 ft | 338 kts | 137° |
| 2026-05-05 18:38 | 48.67135 | 10.98649 | 14816 ft | 336 kts | 137° |
| 2026-05-05 18:38 | 48.65511 | 11.01180 | 14428 ft | 334 kts | 137° |
| 2026-05-05 18:38 | 48.63894 | 11.03696 | 14038 ft | 333 kts | 138° |
| 2026-05-05 18:38 | 48.62284 | 11.06196 | 13647 ft | 331 kts | 138° |
| 2026-05-05 18:39 | 48.60682 | 11.08682 | 13226 ft | 329 kts | 138° |
| 2026-05-05 18:39 | 48.59085 | 11.11152 | 12795 ft | 327 kts | 139° |
| 2026-05-05 18:39 | 48.57397 | 11.13419 | 12370 ft | 323 kts | 146° |
| 2026-05-05 18:39 | 48.55569 | 11.15345 | 11946 ft | 319 kts | 150° |
| 2026-05-05 18:40 | 48.53742 | 11.17235 | 11527 ft | 319 kts | 146° |
| 2026-05-05 18:40 | 48.52291 | 11.19776 | 11129 ft | 325 kts | 122° |
| 2026-05-05 18:40 | 48.51616 | 11.23038 | 10761 ft | 329 kts | 98° |
| 2026-05-05 18:40 | 48.51481 | 11.26453 | 10526 ft | 322 kts | 95° |
| 2026-05-05 18:41 | 48.51406 | 11.29781 | 10376 ft | 313 kts | 94° |
| 2026-05-05 18:41 | 48.51359 | 11.31943 | 10202 ft | 309 kts | 94° |
| 2026-05-05 18:41 | 48.51273 | 11.35199 | 9928 ft | 305 kts | 94° |
| 2026-05-05 18:41 | 48.51186 | 11.38345 | 9817 ft | 304 kts | 94° |
| 2026-05-05 18:42 | 48.51095 | 11.41536 | 9833 ft | 305 kts | 94° |
| 2026-05-05 18:42 | 48.51006 | 11.44728 | 9834 ft | 305 kts | 94° |
| 2026-05-05 18:42 | 48.50923 | 11.47929 | 9837 ft | 306 kts | 95° |
| 2026-05-05 18:42 | 48.50845 | 11.51136 | 9833 ft | 306 kts | 94° |
| 2026-05-05 18:43 | 48.50771 | 11.54352 | 9835 ft | 307 kts | 94° |
| 2026-05-05 18:43 | 48.50699 | 11.57569 | 9833 ft | 307 kts | 94° |
| 2026-05-05 18:43 | 48.50627 | 11.60789 | 9835 ft | 307 kts | 94° |
| 2026-05-05 18:43 | 48.50556 | 11.64012 | 9835 ft | 307 kts | 94° |
| 2026-05-05 18:44 | 48.50483 | 11.67228 | 9836 ft | 307 kts | 94° |
| 2026-05-05 18:44 | 48.50408 | 11.70449 | 9836 ft | 307 kts | 95° |
| 2026-05-05 18:44 | 48.50334 | 11.73670 | 9837 ft | 307 kts | 95° |
| 2026-05-05 18:44 | 48.50261 | 11.76866 | 9681 ft | 303 kts | 94° |
| 2026-05-05 18:45 | 48.50184 | 11.80030 | 9278 ft | 301 kts | 94° |
| 2026-05-05 18:45 | 48.50101 | 11.83175 | 8888 ft | 299 kts | 94° |
| 2026-05-05 18:45 | 48.50013 | 11.86302 | 8511 ft | 298 kts | 94° |
| 2026-05-05 18:45 | 48.49920 | 11.89410 | 8129 ft | 296 kts | 94° |
| 2026-05-05 18:46 | 48.49820 | 11.92497 | 7737 ft | 294 kts | 94° |
| 2026-05-05 18:46 | 48.49713 | 11.95566 | 7345 ft | 293 kts | 94° |
| 2026-05-05 18:46 | 48.49600 | 11.98622 | 6959 ft | 290 kts | 94° |
| 2026-05-05 18:46 | 48.49488 | 12.01561 | 6764 ft | 270 kts | 94° |
| 2026-05-05 18:47 | 48.49382 | 12.04307 | 6444 ft | 258 kts | 94° |
| 2026-05-05 18:47 | 48.49271 | 12.06977 | 5957 ft | 255 kts | 94° |
| 2026-05-05 18:47 | 48.49108 | 12.09583 | 5820 ft | 244 kts | 103° |
| 2026-05-05 18:47 | 48.48855 | 12.12042 | 5714 ft | 233 kts | 96° |
| 2026-05-05 18:48 | 48.48662 | 12.14449 | 5372 ft | 230 kts | 108° |
| 2026-05-05 18:48 | 48.47840 | 12.16448 | 5069 ft | 224 kts | 144° |
| 2026-05-05 18:48 | 48.46467 | 12.17416 | 5010 ft | 220 kts | 169° |
| 2026-05-05 18:48 | 48.44953 | 12.17859 | 5002 ft | 222 kts | 174° |
| 2026-05-05 18:49 | 48.43423 | 12.18140 | 4995 ft | 220 kts | 185° |
| 2026-05-05 18:49 | 48.42000 | 12.17544 | 4993 ft | 211 kts | 219° |
| 2026-05-05 18:49 | 48.40955 | 12.16031 | 5005 ft | 209 kts | 232° |
| 2026-05-05 18:49 | 48.40065 | 12.14381 | 5009 ft | 197 kts | 234° |
| 2026-05-05 18:50 | 48.39241 | 12.12724 | 5012 ft | 196 kts | 243° |
| 2026-05-05 18:50 | 48.38830 | 12.10810 | 5001 ft | 192 kts | 264° |
| 2026-05-05 18:50 | 48.38682 | 12.08814 | 4881 ft | 189 kts | 265° |
| 2026-05-05 18:50 | 48.38544 | 12.06901 | 4674 ft | 179 kts | 265° |
| 2026-05-05 18:51 | 48.38410 | 12.05084 | 4483 ft | 171 kts | 265° |
| 2026-05-05 18:51 | 48.38282 | 12.03345 | 4249 ft | 169 kts | 266° |
| 2026-05-05 18:51 | 48.38152 | 12.01600 | 4015 ft | 168 kts | 265° |
| 2026-05-05 18:51 | 48.38023 | 11.99862 | 3798 ft | 167 kts | 266° |
| 2026-05-05 18:52 | 48.37894 | 11.98133 | 3573 ft | 166 kts | 266° |
| 2026-05-05 18:52 | 48.37766 | 11.96416 | 3356 ft | 165 kts | 266° |
| 2026-05-05 18:52 | 48.37640 | 11.94712 | 3130 ft | 159 kts | 266° |
| 2026-05-05 18:52 | 48.37528 | 11.93138 | 2914 ft | 145 kts | 267° |
| 2026-05-05 18:53 | 48.37408 | 11.91689 | 2721 ft | 135 kts | 266° |
| 2026-05-05 18:53 | 48.37307 | 11.90308 | 2551 ft | 130 kts | 268° |
| 2026-05-05 18:53 | 48.37228 | 11.88946 | 2373 ft | 132 kts | 265° |
| 2026-05-05 18:53 | 48.37108 | 11.87536 | 2246 ft | 140 kts | 263° |
| 2026-05-05 18:54 | 48.36982 | 11.86075 | 2043 ft | 142 kts | 265° |
| 2026-05-05 18:54 | 48.36871 | 11.84590 | 1868 ft | 142 kts | 266° |
| 2026-05-05 18:54 | 48.36767 | 11.83107 | 1648 ft | 143 kts | 265° |
| 2026-05-05 18:54 | 48.36650 | 11.81651 | 1492 ft | 135 kts | 265° |
| 2026-05-05 18:55 | 48.36561 | 11.80461 | 1481 ft | 90 kts | 263° |
| 2026-05-05 18:55 | 48.36503 | 11.79828 | 1481 ft | 31 kts | 245° |
| 2026-05-05 18:55 | 48.36384 | 11.79570 | 1481 ft | 28 kts | 234° |
| 2026-05-05 18:55 | 48.36320 | 11.79439 | 1474 ft | 13 kts | 234° |
| 2026-05-05 18:56 | 48.36264 | 11.79326 | 1480 ft | 15 kts | 232° |
| 2026-05-05 18:56 | 48.36202 | 11.79251 | 1481 ft | 9 kts | 154° |
| 2026-05-05 18:56 | 48.36156 | 11.79296 | 1483 ft | 8 kts | 159° |
| 2026-05-05 18:56 | 48.36095 | 11.79316 | 1483 ft | 9 kts | 171° |
| 2026-05-05 18:57 | 48.36035 | 11.79326 | 1484 ft | 8 kts | 173° |
| 2026-05-05 18:57 | 48.35983 | 11.79335 | 1485 ft | 8 kts | 174° |
| 2026-05-05 18:57 | 48.35901 | 11.79377 | 1480 ft | 16 kts | 148° |
| 2026-05-05 18:57 | 48.35794 | 11.79397 | 1485 ft | 14 kts | 176° |
| 2026-05-05 18:58 | 48.35703 | 11.79410 | 1479 ft | 13 kts | 174° |
| 2026-05-05 18:58 | 48.35651 | 11.79386 | 1476 ft | 7 kts | 252° |
| 2026-05-05 18:58 | 48.35646 | 11.79316 | 1475 ft | 6 kts | 264° |
| 2026-05-05 18:58 | 48.35643 | 11.79275 | 1477 ft | 1 kts | 263° |
| 2026-05-05 18:59 | 48.35643 | 11.79274 | 1477 ft | 0 kts | 263° |